sensor_id;sensor_type;location;lat;lon;timestamp;temperature;humidity
18252;DHT22;26917;52.328;20.878;2022-10-17T00:01:06;12.50;99.90
18252;DHT22;26917;52.328;20.878;2022-10-17T00:03:36;12.50;99.90
18252;DHT22;26917;52.328;20.878;2022-10-17T00:06:07;12.50;99.90
18252;DHT22;26917;52.328;20.878;2022-10-17T00:08:36;12.50;99.90
18252;DHT22;26917;52.328;20.878;2022-10-17T00:11:06;12.50;99.90
18252;DHT22;26917;52.328;20.878;2022-10-17T00:13:34;12.40;99.90
18252;DHT22;26917;52.328;20.878;2022-10-17T00:16:03;12.50;99.90
18252;DHT22;26917;52.328;20.878;2022-10-17T00:18:32;12.40;99.90
18252;DHT22;26917;52.328;20.878;2022-10-17T00:21:00;12.40;99.90
18252;DHT22;26917;52.328;20.878;2022-10-17T00:23:29;12.40;99.90
18252;DHT22;26917;52.328;20.878;2022-10-17T00:25:59;12.40;99.90
18252;DHT22;26917;52.328;20.878;2022-10-17T00:28:27;12.40;99.90
18252;DHT22;26917;52.328;20.878;2022-10-17T00:30:56;12.30;99.90
18252;DHT22;26917;52.328;20.878;2022-10-17T00:33:25;12.30;99.90
18252;DHT22;26917;52.328;20.878;2022-10-17T00:36:02;12.30;99.90
18252;DHT22;26917;52.328;20.878;2022-10-17T00:38:31;12.30;99.90
18252;DHT22;26917;52.328;20.878;2022-10-17T00:41:00;12.30;99.90
18252;DHT22;26917;52.328;20.878;2022-10-17T00:43:30;12.30;99.90
18252;DHT22;26917;52.328;20.878;2022-10-17T00:45:58;12.40;99.90
18252;DHT22;26917;52.328;20.878;2022-10-17T00:48:26;12.40;99.90
18252;DHT22;26917;52.328;20.878;2022-10-17T00:50:54;12.40;99.90
18252;DHT22;26917;52.328;20.878;2022-10-17T00:53:24;12.50;99.90
18252;DHT22;26917;52.328;20.878;2022-10-17T00:55:54;12.50;99.90
18252;DHT22;26917;52.328;20.878;2022-10-17T00:58:22;12.50;99.90
18252;DHT22;26917;52.328;20.878;2022-10-17T01:00:50;12.50;99.90
18252;DHT22;26917;52.328;20.878;2022-10-17T01:03:19;12.50;99.90
18252;DHT22;26917;52.328;20.878;2022-10-17T01:05:47;12.50;99.90
18252;DHT22;26917;52.328;20.878;2022-10-17T01:08:16;12.60;99.90
18252;DHT22;26917;52.328;20.878;2022-10-17T01:10:50;12.60;99.90
18252;DHT22;26917;52.328;20.878;2022-10-17T01:13:29;12.60;99.90
18252;DHT22;26917;52.328;20.878;2022-10-17T01:16:05;12.50;99.90
18252;DHT22;26917;52.328;20.878;2022-10-17T01:18:48;12.50;99.90
18252;DHT22;26917;52.328;20.878;2022-10-17T01:21:32;12.50;99.90
18252;DHT22;26917;52.328;20.878;2022-10-17T01:24:36;12.40;99.90
18252;DHT22;26917;52.328;20.878;2022-10-17T01:33:12;12.40;99.90
18252;DHT22;26917;52.328;20.878;2022-10-17T01:35:50;12.40;99.90
18252;DHT22;26917;52.328;20.878;2022-10-17T01:38:24;12.40;99.90
18252;DHT22;26917;52.328;20.878;2022-10-17T01:40:57;12.30;99.90
18252;DHT22;26917;52.328;20.878;2022-10-17T01:43:32;12.30;99.90
18252;DHT22;26917;52.328;20.878;2022-10-17T01:46:06;12.30;99.90
18252;DHT22;26917;52.328;20.878;2022-10-17T01:48:39;12.30;99.90
18252;DHT22;26917;52.328;20.878;2022-10-17T01:51:14;12.20;99.90
18252;DHT22;26917;52.328;20.878;2022-10-17T01:53:47;12.20;99.90
18252;DHT22;26917;52.328;20.878;2022-10-17T01:56:18;12.20;99.90
18252;DHT22;26917;52.328;20.878;2022-10-17T01:58:50;12.20;99.90
18252;DHT22;26917;52.328;20.878;2022-10-17T02:01:21;12.20;99.90
18252;DHT22;26917;52.328;20.878;2022-10-17T02:03:53;12.10;99.90
18252;DHT22;26917;52.328;20.878;2022-10-17T02:06:23;12.10;99.90
18252;DHT22;26917;52.328;20.878;2022-10-17T02:08:51;12.10;99.90
18252;DHT22;26917;52.328;20.878;2022-10-17T02:11:21;12.10;99.90
18252;DHT22;26917;52.328;20.878;2022-10-17T02:14:03;12.10;99.90
18252;DHT22;26917;52.328;20.878;2022-10-17T02:16:50;12.10;99.90
18252;DHT22;26917;52.328;20.878;2022-10-17T02:19:33;12.00;99.90
18252;DHT22;26917;52.328;20.878;2022-10-17T02:22:13;12.00;99.90
18252;DHT22;26917;52.328;20.878;2022-10-17T02:24:47;12.00;99.90
18252;DHT22;26917;52.328;20.878;2022-10-17T02:27:24;11.90;99.90
18252;DHT22;26917;52.328;20.878;2022-10-17T02:29:59;11.90;99.90
18252;DHT22;26917;52.328;20.878;2022-10-17T02:32:33;11.90;99.90
18252;DHT22;26917;52.328;20.878;2022-10-17T02:35:07;11.90;99.90
18252;DHT22;26917;52.328;20.878;2022-10-17T02:37:36;11.90;99.90
18252;DHT22;26917;52.328;20.878;2022-10-17T02:40:06;11.90;99.90
18252;DHT22;26917;52.328;20.878;2022-10-17T02:42:38;11.80;99.90
18252;DHT22;26917;52.328;20.878;2022-10-17T02:45:08;11.80;99.90
18252;DHT22;26917;52.328;20.878;2022-10-17T02:47:44;11.80;99.90
18252;DHT22;26917;52.328;20.878;2022-10-17T02:50:20;11.80;99.90
18252;DHT22;26917;52.328;20.878;2022-10-17T02:52:54;11.80;99.90
18252;DHT22;26917;52.328;20.878;2022-10-17T02:55:26;11.70;99.90
18252;DHT22;26917;52.328;20.878;2022-10-17T02:57:59;11.70;99.90
18252;DHT22;26917;52.328;20.878;2022-10-17T03:00:30;11.80;99.90
18252;DHT22;26917;52.328;20.878;2022-10-17T03:02:58;11.80;99.90
18252;DHT22;26917;52.328;20.878;2022-10-17T03:05:29;11.80;99.90
18252;DHT22;26917;52.328;20.878;2022-10-17T03:07:58;11.80;99.90
18252;DHT22;26917;52.328;20.878;2022-10-17T03:10:26;11.70;99.90
18252;DHT22;26917;52.328;20.878;2022-10-17T03:12:54;11.70;99.90
18252;DHT22;26917;52.328;20.878;2022-10-17T03:15:24;11.70;99.90
18252;DHT22;26917;52.328;20.878;2022-10-17T03:17:52;11.70;99.90
18252;DHT22;26917;52.328;20.878;2022-10-17T03:20:21;11.70;99.90
18252;DHT22;26917;52.328;20.878;2022-10-17T03:22:51;11.70;99.90
18252;DHT22;26917;52.328;20.878;2022-10-17T03:25:19;11.80;99.90
18252;DHT22;26917;52.328;20.878;2022-10-17T03:27:48;11.80;99.90
18252;DHT22;26917;52.328;20.878;2022-10-17T03:30:16;11.80;99.90
18252;DHT22;26917;52.328;20.878;2022-10-17T03:32:45;11.80;99.90
18252;DHT22;26917;52.328;20.878;2022-10-17T03:35:13;11.80;99.90
18252;DHT22;26917;52.328;20.878;2022-10-17T03:37:45;11.80;99.90
18252;DHT22;26917;52.328;20.878;2022-10-17T03:40:16;11.80;99.90
18252;DHT22;26917;52.328;20.878;2022-10-17T03:42:44;11.80;99.90
18252;DHT22;26917;52.328;20.878;2022-10-17T03:45:13;11.80;99.90
18252;DHT22;26917;52.328;20.878;2022-10-17T03:47:43;11.70;99.90
18252;DHT22;26917;52.328;20.878;2022-10-17T03:50:11;11.80;99.90
18252;DHT22;26917;52.328;20.878;2022-10-17T03:52:40;11.80;99.90
18252;DHT22;26917;52.328;20.878;2022-10-17T03:55:09;11.80;99.90
18252;DHT22;26917;52.328;20.878;2022-10-17T03:57:39;11.70;99.90
18252;DHT22;26917;52.328;20.878;2022-10-17T04:00:12;11.80;99.90
18252;DHT22;26917;52.328;20.878;2022-10-17T04:02:40;11.70;99.90
18252;DHT22;26917;52.328;20.878;2022-10-17T04:05:16;11.70;99.90
18252;DHT22;26917;52.328;20.878;2022-10-17T04:07:46;11.70;99.90
18252;DHT22;26917;52.328;20.878;2022-10-17T04:10:17;11.60;99.90
18252;DHT22;26917;52.328;20.878;2022-10-17T04:12:47;11.60;99.90
18252;DHT22;26917;52.328;20.878;2022-10-17T04:15:17;11.50;99.90
18252;DHT22;26917;52.328;20.878;2022-10-17T04:17:45;11.50;99.90
18252;DHT22;26917;52.328;20.878;2022-10-17T04:20:15;11.50;99.90
18252;DHT22;26917;52.328;20.878;2022-10-17T04:22:44;11.50;99.90
18252;DHT22;26917;52.328;20.878;2022-10-17T04:25:12;11.40;99.90
18252;DHT22;26917;52.328;20.878;2022-10-17T04:27:44;11.40;99.90
18252;DHT22;26917;52.328;20.878;2022-10-17T04:30:14;11.40;99.90
18252;DHT22;26917;52.328;20.878;2022-10-17T04:32:43;11.30;99.90
18252;DHT22;26917;52.328;20.878;2022-10-17T04:35:17;11.30;99.90
18252;DHT22;26917;52.328;20.878;2022-10-17T04:37:50;11.30;99.90
18252;DHT22;26917;52.328;20.878;2022-10-17T04:40:19;11.30;99.90
18252;DHT22;26917;52.328;20.878;2022-10-17T04:42:50;11.30;99.90
18252;DHT22;26917;52.328;20.878;2022-10-17T04:45:23;11.30;99.90
18252;DHT22;26917;52.328;20.878;2022-10-17T04:47:56;11.30;99.90
18252;DHT22;26917;52.328;20.878;2022-10-17T04:50:25;11.40;99.90
18252;DHT22;26917;52.328;20.878;2022-10-17T04:53:20;11.40;99.90
18252;DHT22;26917;52.328;20.878;2022-10-17T04:55:48;11.40;99.90
18252;DHT22;26917;52.328;20.878;2022-10-17T04:58:17;11.40;99.90
18252;DHT22;26917;52.328;20.878;2022-10-17T05:00:47;11.40;99.90
18252;DHT22;26917;52.328;20.878;2022-10-17T05:03:21;11.40;99.90
18252;DHT22;26917;52.328;20.878;2022-10-17T05:05:50;11.40;99.90
18252;DHT22;26917;52.328;20.878;2022-10-17T05:08:19;11.40;99.90
18252;DHT22;26917;52.328;20.878;2022-10-17T05:10:47;11.40;99.90
18252;DHT22;26917;52.328;20.878;2022-10-17T05:13:15;11.40;99.90
18252;DHT22;26917;52.328;20.878;2022-10-17T05:15:43;11.40;99.90
18252;DHT22;26917;52.328;20.878;2022-10-17T05:18:13;11.40;99.90
18252;DHT22;26917;52.328;20.878;2022-10-17T05:20:43;11.40;99.90
18252;DHT22;26917;52.328;20.878;2022-10-17T05:23:11;11.30;99.90
18252;DHT22;26917;52.328;20.878;2022-10-17T05:25:43;11.30;99.90
18252;DHT22;26917;52.328;20.878;2022-10-17T05:28:11;11.30;99.90
18252;DHT22;26917;52.328;20.878;2022-10-17T05:30:41;11.30;99.90
18252;DHT22;26917;52.328;20.878;2022-10-17T05:33:09;11.30;99.90
18252;DHT22;26917;52.328;20.878;2022-10-17T05:35:40;11.40;99.90
18252;DHT22;26917;52.328;20.878;2022-10-17T05:38:09;11.40;99.90
18252;DHT22;26917;52.328;20.878;2022-10-17T05:40:39;11.40;99.90
18252;DHT22;26917;52.328;20.878;2022-10-17T05:43:08;11.50;99.90
18252;DHT22;26917;52.328;20.878;2022-10-17T05:45:36;11.50;99.90
18252;DHT22;26917;52.328;20.878;2022-10-17T05:48:08;11.50;99.90
18252;DHT22;26917;52.328;20.878;2022-10-17T05:50:36;11.60;99.90
18252;DHT22;26917;52.328;20.878;2022-10-17T05:53:11;11.60;99.90
18252;DHT22;26917;52.328;20.878;2022-10-17T05:55:44;11.60;99.90
18252;DHT22;26917;52.328;20.878;2022-10-17T05:58:13;11.60;99.90
18252;DHT22;26917;52.328;20.878;2022-10-17T06:00:59;11.60;99.90
18252;DHT22;26917;52.328;20.878;2022-10-17T06:03:28;11.60;99.90
18252;DHT22;26917;52.328;20.878;2022-10-17T06:06:02;11.60;99.90
18252;DHT22;26917;52.328;20.878;2022-10-17T06:08:32;11.60;99.90
18252;DHT22;26917;52.328;20.878;2022-10-17T06:11:02;11.60;99.90
18252;DHT22;26917;52.328;20.878;2022-10-17T06:13:35;11.60;99.90
18252;DHT22;26917;52.328;20.878;2022-10-17T06:16:10;11.60;99.90
18252;DHT22;26917;52.328;20.878;2022-10-17T06:18:38;11.70;99.90
18252;DHT22;26917;52.328;20.878;2022-10-17T06:21:08;11.70;99.90
18252;DHT22;26917;52.328;20.878;2022-10-17T06:23:44;11.80;99.90
18252;DHT22;26917;52.328;20.878;2022-10-17T06:26:20;11.80;99.90
18252;DHT22;26917;52.328;20.878;2022-10-17T06:28:50;11.90;99.90
18252;DHT22;26917;52.328;20.878;2022-10-17T06:31:18;11.90;99.90
18252;DHT22;26917;52.328;20.878;2022-10-17T06:33:46;12.00;99.90
18252;DHT22;26917;52.328;20.878;2022-10-17T06:36:15;12.10;99.90
18252;DHT22;26917;52.328;20.878;2022-10-17T06:38:46;12.20;99.90
18252;DHT22;26917;52.328;20.878;2022-10-17T06:41:27;12.20;99.90
18252;DHT22;26917;52.328;20.878;2022-10-17T06:44:02;12.30;99.90
18252;DHT22;26917;52.328;20.878;2022-10-17T06:47:09;12.40;99.90
18252;DHT22;26917;52.328;20.878;2022-10-17T06:49:42;12.50;99.90
18252;DHT22;26917;52.328;20.878;2022-10-17T06:52:23;12.50;99.90
18252;DHT22;26917;52.328;20.878;2022-10-17T06:55:18;12.60;99.90
18252;DHT22;26917;52.328;20.878;2022-10-17T06:58:21;12.60;99.90
18252;DHT22;26917;52.328;20.878;2022-10-17T07:01:06;12.70;99.90
18252;DHT22;26917;52.328;20.878;2022-10-17T07:03:35;12.70;99.90
18252;DHT22;26917;52.328;20.878;2022-10-17T07:06:03;12.80;99.90
18252;DHT22;26917;52.328;20.878;2022-10-17T07:08:32;12.90;99.90
18252;DHT22;26917;52.328;20.878;2022-10-17T07:11:09;12.90;99.90
18252;DHT22;26917;52.328;20.878;2022-10-17T07:13:37;13.00;99.90
18252;DHT22;26917;52.328;20.878;2022-10-17T07:16:06;13.10;99.90
18252;DHT22;26917;52.328;20.878;2022-10-17T07:18:37;13.20;99.90
18252;DHT22;26917;52.328;20.878;2022-10-17T07:21:06;13.30;99.90
18252;DHT22;26917;52.328;20.878;2022-10-17T07:23:36;13.40;99.90
18252;DHT22;26917;52.328;20.878;2022-10-17T07:26:08;13.40;99.90
18252;DHT22;26917;52.328;20.878;2022-10-17T07:28:40;13.60;99.90
18252;DHT22;26917;52.328;20.878;2022-10-17T07:31:31;13.60;99.90
18252;DHT22;26917;52.328;20.878;2022-10-17T07:34:00;13.80;99.90
18252;DHT22;26917;52.328;20.878;2022-10-17T07:36:29;13.90;99.90
18252;DHT22;26917;52.328;20.878;2022-10-17T07:38:59;13.90;99.90
18252;DHT22;26917;52.328;20.878;2022-10-17T07:41:29;14.00;99.90
18252;DHT22;26917;52.328;20.878;2022-10-17T07:43:59;14.00;99.90
18252;DHT22;26917;52.328;20.878;2022-10-17T07:46:32;14.20;99.90
18252;DHT22;26917;52.328;20.878;2022-10-17T07:49:01;14.30;99.90
18252;DHT22;26917;52.328;20.878;2022-10-17T07:51:29;14.40;99.90
18252;DHT22;26917;52.328;20.878;2022-10-17T07:53:58;14.50;99.90
18252;DHT22;26917;52.328;20.878;2022-10-17T07:56:26;14.50;99.90
18252;DHT22;26917;52.328;20.878;2022-10-17T07:58:56;14.60;99.90
18252;DHT22;26917;52.328;20.878;2022-10-17T08:01:30;14.70;99.90
18252;DHT22;26917;52.328;20.878;2022-10-17T08:03:58;14.90;99.90
18252;DHT22;26917;52.328;20.878;2022-10-17T08:06:26;14.90;99.90
18252;DHT22;26917;52.328;20.878;2022-10-17T08:08:54;15.00;99.90
18252;DHT22;26917;52.328;20.878;2022-10-17T08:11:23;15.00;99.90
18252;DHT22;26917;52.328;20.878;2022-10-17T08:13:52;15.10;99.90
18252;DHT22;26917;52.328;20.878;2022-10-17T08:16:20;15.10;99.90
18252;DHT22;26917;52.328;20.878;2022-10-17T08:18:49;15.20;99.90
18252;DHT22;26917;52.328;20.878;2022-10-17T08:21:18;15.30;99.90
18252;DHT22;26917;52.328;20.878;2022-10-17T08:23:46;15.30;99.90
18252;DHT22;26917;52.328;20.878;2022-10-17T08:26:14;15.30;99.90
18252;DHT22;26917;52.328;20.878;2022-10-17T08:28:43;15.30;99.90
18252;DHT22;26917;52.328;20.878;2022-10-17T08:31:13;15.40;99.90
18252;DHT22;26917;52.328;20.878;2022-10-17T08:33:41;15.40;99.90
18252;DHT22;26917;52.328;20.878;2022-10-17T08:36:12;15.50;99.90
18252;DHT22;26917;52.328;20.878;2022-10-17T08:38:44;15.50;99.90
18252;DHT22;26917;52.328;20.878;2022-10-17T08:41:34;15.50;99.90
18252;DHT22;26917;52.328;20.878;2022-10-17T08:44:11;15.60;99.90
18252;DHT22;26917;52.328;20.878;2022-10-17T08:46:43;15.60;99.90
18252;DHT22;26917;52.328;20.878;2022-10-17T08:49:18;15.70;99.90
18252;DHT22;26917;52.328;20.878;2022-10-17T08:51:53;15.80;99.90
18252;DHT22;26917;52.328;20.878;2022-10-17T08:54:28;15.80;99.90
18252;DHT22;26917;52.328;20.878;2022-10-17T08:56:59;15.90;99.90
18252;DHT22;26917;52.328;20.878;2022-10-17T08:59:29;15.90;99.90
18252;DHT22;26917;52.328;20.878;2022-10-17T09:02:02;16.00;99.90
18252;DHT22;26917;52.328;20.878;2022-10-17T09:04:49;16.10;99.90
18252;DHT22;26917;52.328;20.878;2022-10-17T09:07:29;16.20;99.90
18252;DHT22;26917;52.328;20.878;2022-10-17T09:10:03;16.30;99.90
18252;DHT22;26917;52.328;20.878;2022-10-17T09:12:39;16.50;99.90
18252;DHT22;26917;52.328;20.878;2022-10-17T09:18:12;16.80;99.90
18252;DHT22;26917;52.328;20.878;2022-10-17T09:20:51;16.90;99.90
18252;DHT22;26917;52.328;20.878;2022-10-17T09:23:24;17.00;99.90
18252;DHT22;26917;52.328;20.878;2022-10-17T09:25:55;17.10;99.90
18252;DHT22;26917;52.328;20.878;2022-10-17T09:28:28;17.20;99.90
18252;DHT22;26917;52.328;20.878;2022-10-17T09:31:00;17.30;99.90
18252;DHT22;26917;52.328;20.878;2022-10-17T09:33:34;17.30;99.90
18252;DHT22;26917;52.328;20.878;2022-10-17T09:36:22;17.40;99.90
18252;DHT22;26917;52.328;20.878;2022-10-17T09:38:54;17.40;99.90
18252;DHT22;26917;52.328;20.878;2022-10-17T09:41:35;17.40;99.90
18252;DHT22;26917;52.328;20.878;2022-10-17T09:44:19;17.50;99.90
18252;DHT22;26917;52.328;20.878;2022-10-17T09:47:14;17.50;99.90
18252;DHT22;26917;52.328;20.878;2022-10-17T09:49:47;17.60;99.90
18252;DHT22;26917;52.328;20.878;2022-10-17T09:52:17;17.60;99.90
18252;DHT22;26917;52.328;20.878;2022-10-17T09:54:49;17.60;99.90
18252;DHT22;26917;52.328;20.878;2022-10-17T09:57:19;17.60;99.90
18252;DHT22;26917;52.328;20.878;2022-10-17T09:59:56;17.80;99.90
18252;DHT22;26917;52.328;20.878;2022-10-17T10:02:26;17.80;99.90
18252;DHT22;26917;52.328;20.878;2022-10-17T10:05:00;17.90;99.90
18252;DHT22;26917;52.328;20.878;2022-10-17T10:07:33;18.00;99.90
18252;DHT22;26917;52.328;20.878;2022-10-17T10:10:05;18.10;99.90
18252;DHT22;26917;52.328;20.878;2022-10-17T10:12:36;18.30;99.90
18252;DHT22;26917;52.328;20.878;2022-10-17T10:15:31;18.40;99.90
18252;DHT22;26917;52.328;20.878;2022-10-17T10:17:59;18.50;99.90
18252;DHT22;26917;52.328;20.878;2022-10-17T10:20:31;18.50;99.90
18252;DHT22;26917;52.328;20.878;2022-10-17T10:23:11;18.60;99.90
18252;DHT22;26917;52.328;20.878;2022-10-17T10:25:54;18.60;99.90
18252;DHT22;26917;52.328;20.878;2022-10-17T10:28:26;18.70;99.90
18252;DHT22;26917;52.328;20.878;2022-10-17T10:30:57;18.80;99.90
18252;DHT22;26917;52.328;20.878;2022-10-17T10:33:27;18.90;99.90
18252;DHT22;26917;52.328;20.878;2022-10-17T10:35:58;18.90;99.90
18252;DHT22;26917;52.328;20.878;2022-10-17T10:38:28;18.90;99.90
18252;DHT22;26917;52.328;20.878;2022-10-17T10:41:03;18.90;99.90
18252;DHT22;26917;52.328;20.878;2022-10-17T10:43:34;18.90;99.90
18252;DHT22;26917;52.328;20.878;2022-10-17T10:46:05;19.10;99.90
18252;DHT22;26917;52.328;20.878;2022-10-17T10:48:35;19.20;99.90
18252;DHT22;26917;52.328;20.878;2022-10-17T10:51:08;19.30;99.90
18252;DHT22;26917;52.328;20.878;2022-10-17T10:53:44;19.40;99.90
18252;DHT22;26917;52.328;20.878;2022-10-17T10:56:18;19.50;99.90
18252;DHT22;26917;52.328;20.878;2022-10-17T10:58:53;19.50;99.90
18252;DHT22;26917;52.328;20.878;2022-10-17T11:01:28;19.60;99.90
18252;DHT22;26917;52.328;20.878;2022-10-17T11:04:07;19.70;99.90
18252;DHT22;26917;52.328;20.878;2022-10-17T11:06:41;19.70;99.90
18252;DHT22;26917;52.328;20.878;2022-10-17T11:09:22;19.90;99.90
18252;DHT22;26917;52.328;20.878;2022-10-17T11:11:58;19.90;99.90
18252;DHT22;26917;52.328;20.878;2022-10-17T11:14:37;19.90;99.90
18252;DHT22;26917;52.328;20.878;2022-10-17T11:17:14;19.90;99.90
18252;DHT22;26917;52.328;20.878;2022-10-17T11:19:49;19.90;99.90
18252;DHT22;26917;52.328;20.878;2022-10-17T11:22:25;19.80;99.90
18252;DHT22;26917;52.328;20.878;2022-10-17T11:24:59;19.90;99.90
18252;DHT22;26917;52.328;20.878;2022-10-17T11:27:30;19.90;99.90
18252;DHT22;26917;52.328;20.878;2022-10-17T11:29:58;19.90;99.90
18252;DHT22;26917;52.328;20.878;2022-10-17T11:32:30;19.90;99.90
18252;DHT22;26917;52.328;20.878;2022-10-17T11:35:06;20.00;99.90
18252;DHT22;26917;52.328;20.878;2022-10-17T11:37:38;20.00;99.90
18252;DHT22;26917;52.328;20.878;2022-10-17T11:40:14;20.00;99.90
18252;DHT22;26917;52.328;20.878;2022-10-17T11:42:56;19.90;99.90
18252;DHT22;26917;52.328;20.878;2022-10-17T11:45:28;19.90;99.90
18252;DHT22;26917;52.328;20.878;2022-10-17T11:48:00;19.90;99.90
18252;DHT22;26917;52.328;20.878;2022-10-17T11:50:31;19.90;99.90
18252;DHT22;26917;52.328;20.878;2022-10-17T11:53:23;20.00;99.90
18252;DHT22;26917;52.328;20.878;2022-10-17T11:55:52;20.00;99.90
18252;DHT22;26917;52.328;20.878;2022-10-17T11:58:34;20.00;99.90
18252;DHT22;26917;52.328;20.878;2022-10-17T12:01:12;20.10;99.90
18252;DHT22;26917;52.328;20.878;2022-10-17T12:04:00;20.00;99.90
18252;DHT22;26917;52.328;20.878;2022-10-17T12:06:48;20.00;99.90
18252;DHT22;26917;52.328;20.878;2022-10-17T12:09:23;20.00;99.90
18252;DHT22;26917;52.328;20.878;2022-10-17T12:11:55;20.00;99.90
18252;DHT22;26917;52.328;20.878;2022-10-17T12:14:40;20.00;99.90
18252;DHT22;26917;52.328;20.878;2022-10-17T12:17:36;20.00;99.90
18252;DHT22;26917;52.328;20.878;2022-10-17T12:20:30;20.00;99.90
18252;DHT22;26917;52.328;20.878;2022-10-17T12:25:50;19.90;99.90
18252;DHT22;26917;52.328;20.878;2022-10-17T12:28:26;19.80;99.90
18252;DHT22;26917;52.328;20.878;2022-10-17T12:30:58;19.80;99.90
18252;DHT22;26917;52.328;20.878;2022-10-17T12:33:31;19.80;99.90
18252;DHT22;26917;52.328;20.878;2022-10-17T12:36:35;19.70;99.90
18252;DHT22;26917;52.328;20.878;2022-10-17T12:42:48;19.60;99.90
18252;DHT22;26917;52.328;20.878;2022-10-17T12:45:48;19.70;99.90
18252;DHT22;26917;52.328;20.878;2022-10-17T12:48:58;19.70;99.90
18252;DHT22;26917;52.328;20.878;2022-10-17T12:51:27;19.80;99.90
18252;DHT22;26917;52.328;20.878;2022-10-17T12:54:10;19.70;99.90
18252;DHT22;26917;52.328;20.878;2022-10-17T12:56:40;19.70;99.90
18252;DHT22;26917;52.328;20.878;2022-10-17T12:59:14;19.70;99.90
18252;DHT22;26917;52.328;20.878;2022-10-17T13:01:45;19.60;99.90
18252;DHT22;26917;52.328;20.878;2022-10-17T13:04:17;19.50;99.90
18252;DHT22;26917;52.328;20.878;2022-10-17T13:06:47;19.50;99.90
18252;DHT22;26917;52.328;20.878;2022-10-17T13:09:23;19.50;99.90
18252;DHT22;26917;52.328;20.878;2022-10-17T13:11:53;19.40;99.90
18252;DHT22;26917;52.328;20.878;2022-10-17T13:14:24;19.40;99.90
18252;DHT22;26917;52.328;20.878;2022-10-17T13:16:54;19.40;99.90
18252;DHT22;26917;52.328;20.878;2022-10-17T13:19:28;19.40;99.90
18252;DHT22;26917;52.328;20.878;2022-10-17T13:21:58;19.40;99.90
18252;DHT22;26917;52.328;20.878;2022-10-17T13:24:34;19.40;99.90
18252;DHT22;26917;52.328;20.878;2022-10-17T13:27:04;19.30;99.90
18252;DHT22;26917;52.328;20.878;2022-10-17T13:29:32;19.30;99.90
18252;DHT22;26917;52.328;20.878;2022-10-17T13:32:03;19.20;99.90
18252;DHT22;26917;52.328;20.878;2022-10-17T13:34:33;19.20;99.90
18252;DHT22;26917;52.328;20.878;2022-10-17T13:37:04;19.20;99.90
18252;DHT22;26917;52.328;20.878;2022-10-17T13:39:35;19.10;99.90
18252;DHT22;26917;52.328;20.878;2022-10-17T13:42:26;19.20;99.90
18252;DHT22;26917;52.328;20.878;2022-10-17T13:44:56;19.20;99.90
18252;DHT22;26917;52.328;20.878;2022-10-17T13:47:26;19.10;99.90
18252;DHT22;26917;52.328;20.878;2022-10-17T13:49:57;19.10;99.90
18252;DHT22;26917;52.328;20.878;2022-10-17T13:52:27;19.10;99.90
18252;DHT22;26917;52.328;20.878;2022-10-17T13:55:06;19.10;99.90
18252;DHT22;26917;52.328;20.878;2022-10-17T13:57:39;19.10;99.90
18252;DHT22;26917;52.328;20.878;2022-10-17T14:00:16;19.00;99.90
18252;DHT22;26917;52.328;20.878;2022-10-17T14:02:45;19.00;99.90
18252;DHT22;26917;52.328;20.878;2022-10-17T14:05:17;19.00;99.90
18252;DHT22;26917;52.328;20.878;2022-10-17T14:07:51;19.00;99.90
18252;DHT22;26917;52.328;20.878;2022-10-17T14:10:41;19.00;99.90
18252;DHT22;26917;52.328;20.878;2022-10-17T14:13:18;18.90;99.90
18252;DHT22;26917;52.328;20.878;2022-10-17T14:15:48;18.90;99.90
18252;DHT22;26917;52.328;20.878;2022-10-17T14:18:18;18.90;99.90
18252;DHT22;26917;52.328;20.878;2022-10-17T14:20:50;18.80;99.90
18252;DHT22;26917;52.328;20.878;2022-10-17T14:23:39;18.70;99.90
18252;DHT22;26917;52.328;20.878;2022-10-17T14:26:11;18.60;99.90
18252;DHT22;26917;52.328;20.878;2022-10-17T14:28:44;18.60;99.90
18252;DHT22;26917;52.328;20.878;2022-10-17T14:31:27;18.60;99.90
18252;DHT22;26917;52.328;20.878;2022-10-17T14:33:56;18.50;99.90
18252;DHT22;26917;52.328;20.878;2022-10-17T14:36:36;18.40;99.90
18252;DHT22;26917;52.328;20.878;2022-10-17T14:39:07;18.40;99.90
18252;DHT22;26917;52.328;20.878;2022-10-17T14:41:43;18.40;99.90
18252;DHT22;26917;52.328;20.878;2022-10-17T14:44:19;18.30;99.90
18252;DHT22;26917;52.328;20.878;2022-10-17T14:46:52;18.30;99.90
18252;DHT22;26917;52.328;20.878;2022-10-17T14:49:25;18.20;99.90
18252;DHT22;26917;52.328;20.878;2022-10-17T14:52:28;18.20;99.90
18252;DHT22;26917;52.328;20.878;2022-10-17T14:55:00;18.10;99.90
18252;DHT22;26917;52.328;20.878;2022-10-17T14:57:42;18.10;99.90
18252;DHT22;26917;52.328;20.878;2022-10-17T15:00:13;18.00;99.90
18252;DHT22;26917;52.328;20.878;2022-10-17T15:02:42;17.90;99.90
18252;DHT22;26917;52.328;20.878;2022-10-17T15:05:11;17.90;99.90
18252;DHT22;26917;52.328;20.878;2022-10-17T15:07:41;17.80;99.90
18252;DHT22;26917;52.328;20.878;2022-10-17T15:10:23;17.70;99.90
18252;DHT22;26917;52.328;20.878;2022-10-17T15:12:51;17.60;99.90
18252;DHT22;26917;52.328;20.878;2022-10-17T15:15:31;17.60;99.90
18252;DHT22;26917;52.328;20.878;2022-10-17T15:17:59;17.50;99.90
18252;DHT22;26917;52.328;20.878;2022-10-17T15:20:28;17.40;99.90
18252;DHT22;26917;52.328;20.878;2022-10-17T15:22:59;17.30;99.90
18252;DHT22;26917;52.328;20.878;2022-10-17T15:25:29;17.30;99.90
18252;DHT22;26917;52.328;20.878;2022-10-17T15:27:58;17.20;99.90
18252;DHT22;26917;52.328;20.878;2022-10-17T15:30:28;17.10;99.90
18252;DHT22;26917;52.328;20.878;2022-10-17T15:32:58;17.00;99.90
18252;DHT22;26917;52.328;20.878;2022-10-17T15:35:27;17.00;99.90
18252;DHT22;26917;52.328;20.878;2022-10-17T15:37:57;16.90;99.90
18252;DHT22;26917;52.328;20.878;2022-10-17T15:40:26;16.80;99.90
18252;DHT22;26917;52.328;20.878;2022-10-17T15:42:55;16.80;99.90
18252;DHT22;26917;52.328;20.878;2022-10-17T15:45:24;16.70;99.90
18252;DHT22;26917;52.328;20.878;2022-10-17T15:47:54;16.70;99.90
18252;DHT22;26917;52.328;20.878;2022-10-17T15:50:22;16.60;99.90
18252;DHT22;26917;52.328;20.878;2022-10-17T15:52:51;16.60;99.90
18252;DHT22;26917;52.328;20.878;2022-10-17T15:55:21;16.50;99.90
18252;DHT22;26917;52.328;20.878;2022-10-17T15:57:49;16.40;99.90
18252;DHT22;26917;52.328;20.878;2022-10-17T16:00:20;16.40;99.90
18252;DHT22;26917;52.328;20.878;2022-10-17T16:02:49;16.30;99.90
18252;DHT22;26917;52.328;20.878;2022-10-17T16:05:19;16.20;99.90
18252;DHT22;26917;52.328;20.878;2022-10-17T16:07:49;16.20;99.90